sensor_id;sensor_type;location;lat;lon;timestamp;P1;durP1;ratioP1;P2;durP2;ratioP2
1024;SDS011;501;48.214;11.350;2023-06-10T00:01:53;9.83;;;8.90;;
1024;SDS011;501;48.214;11.350;2023-06-10T00:04:24;9.60;;;8.63;;
1024;SDS011;501;48.214;11.350;2023-06-10T00:06:53;10.03;;;8.87;;
1024;SDS011;501;48.214;11.350;2023-06-10T00:09:19;10.60;;;9.67;;
1024;SDS011;501;48.214;11.350;2023-06-10T00:11:46;9.60;;;8.70;;
1024;SDS011;501;48.214;11.350;2023-06-10T00:14:12;9.80;;;8.93;;
1024;SDS011;501;48.214;11.350;2023-06-10T00:16:38;10.77;;;9.77;;
1024;SDS011;501;48.214;11.350;2023-06-10T00:19:04;12.17;;;10.97;;
1024;SDS011;501;48.214;11.350;2023-06-10T00:21:30;11.03;;;10.03;;
1024;SDS011;501;48.214;11.350;2023-06-10T00:24:11;10.03;;;9.03;;
1024;SDS011;501;48.214;11.350;2023-06-10T00:26:40;10.57;;;9.40;;
1024;SDS011;501;48.214;11.350;2023-06-10T00:29:06;11.00;;;9.90;;
1024;SDS011;501;48.214;11.350;2023-06-10T00:31:36;9.60;;;8.70;;
1024;SDS011;501;48.214;11.350;2023-06-10T00:34:02;9.30;;;8.50;;
1024;SDS011;501;48.214;11.350;2023-06-10T00:36:28;9.37;;;8.57;;
1024;SDS011;501;48.214;11.350;2023-06-10T00:38:54;10.10;;;8.63;;
1024;SDS011;501;48.214;11.350;2023-06-10T00:41:20;8.40;;;7.60;;
1024;SDS011;501;48.214;11.350;2023-06-10T00:43:46;10.73;;;9.63;;
1024;SDS011;501;48.214;11.350;2023-06-10T00:46:11;9.87;;;8.57;;
1024;SDS011;501;48.214;11.350;2023-06-10T00:48:39;9.33;;;8.43;;
1024;SDS011;501;48.214;11.350;2023-06-10T00:51:06;9.30;;;8.40;;
1024;SDS011;501;48.214;11.350;2023-06-10T00:53:34;9.33;;;8.43;;
1024;SDS011;501;48.214;11.350;2023-06-10T00:56:01;10.03;;;8.20;;
1024;SDS011;501;48.214;11.350;2023-06-10T00:58:30;9.30;;;8.03;;
1024;SDS011;501;48.214;11.350;2023-06-10T01:00:56;8.90;;;8.00;;
1024;SDS011;501;48.214;11.350;2023-06-10T01:03:22;9.13;;;8.23;;
1024;SDS011;501;48.214;11.350;2023-06-10T01:05:50;8.63;;;7.90;;
1024;SDS011;501;48.214;11.350;2023-06-10T01:11:12;8.63;;;7.83;;
1024;SDS011;501;48.214;11.350;2023-06-10T01:13:44;8.90;;;8.00;;
1024;SDS011;501;48.214;11.350;2023-06-10T01:16:11;9.03;;;8.20;;
1024;SDS011;501;48.214;11.350;2023-06-10T01:18:37;8.10;;;7.20;;
1024;SDS011;501;48.214;11.350;2023-06-10T01:21:03;9.30;;;8.30;;
1024;SDS011;501;48.214;11.350;2023-06-10T01:23:29;8.37;;;7.67;;
1024;SDS011;501;48.214;11.350;2023-06-10T01:25:58;10.17;;;9.07;;
1024;SDS011;501;48.214;11.350;2023-06-10T01:28:31;9.27;;;8.37;;
1024;SDS011;501;48.214;11.350;2023-06-10T01:33:49;9.03;;;8.13;;
1024;SDS011;501;48.214;11.350;2023-06-10T01:36:18;9.23;;;8.30;;
1024;SDS011;501;48.214;11.350;2023-06-10T01:38:46;8.70;;;7.90;;
1024;SDS011;501;48.214;11.350;2023-06-10T01:41:13;7.80;;;7.10;;
1024;SDS011;501;48.214;11.350;2023-06-10T01:43:40;8.53;;;7.73;;
1024;SDS011;501;48.214;11.350;2023-06-10T01:46:08;8.90;;;8.03;;
1024;SDS011;501;48.214;11.350;2023-06-10T01:48:34;9.17;;;8.17;;
1024;SDS011;501;48.214;11.350;2023-06-10T01:51:00;8.97;;;8.07;;
1024;SDS011;501;48.214;11.350;2023-06-10T01:53:26;10.63;;;8.27;;
1024;SDS011;501;48.214;11.350;2023-06-10T01:55:51;9.83;;;8.40;;
1024;SDS011;501;48.214;11.350;2023-06-10T01:58:17;9.77;;;8.83;;
1024;SDS011;501;48.214;11.350;2023-06-10T02:00:43;9.00;;;8.20;;
1024;SDS011;501;48.214;11.350;2023-06-10T02:03:08;9.23;;;8.33;;
1024;SDS011;501;48.214;11.350;2023-06-10T02:05:34;9.37;;;8.47;;
1024;SDS011;501;48.214;11.350;2023-06-10T02:08:00;9.23;;;8.37;;
1024;SDS011;501;48.214;11.350;2023-06-10T02:10:26;9.90;;;9.00;;
1024;SDS011;501;48.214;11.350;2023-06-10T02:12:51;7.97;;;7.27;;
1024;SDS011;501;48.214;11.350;2023-06-10T02:15:17;9.87;;;8.97;;
1024;SDS011;501;48.214;11.350;2023-06-10T02:17:43;11.80;;;8.67;;
1024;SDS011;501;48.214;11.350;2023-06-10T02:20:10;10.03;;;9.00;;
1024;SDS011;501;48.214;11.350;2023-06-10T02:22:36;9.20;;;8.40;;
1024;SDS011;501;48.214;11.350;2023-06-10T02:25:02;10.17;;;9.17;;
1024;SDS011;501;48.214;11.350;2023-06-10T02:27:29;10.23;;;9.23;;
1024;SDS011;501;48.214;11.350;2023-06-10T02:29:55;9.67;;;8.40;;
1024;SDS011;501;48.214;11.350;2023-06-10T02:32:21;10.80;;;9.70;;
1024;SDS011;501;48.214;11.350;2023-06-10T02:34:47;9.53;;;8.37;;
1024;SDS011;501;48.214;11.350;2023-06-10T02:37:14;9.70;;;8.80;;
1024;SDS011;501;48.214;11.350;2023-06-10T02:39:40;9.00;;;8.20;;
1024;SDS011;501;48.214;11.350;2023-06-10T02:42:06;10.20;;;9.13;;
1024;SDS011;501;48.214;11.350;2023-06-10T02:44:32;10.60;;;9.50;;
1024;SDS011;501;48.214;11.350;2023-06-10T02:46:58;10.77;;;9.67;;
1024;SDS011;501;48.214;11.350;2023-06-10T02:49:24;10.27;;;9.17;;
1024;SDS011;501;48.214;11.350;2023-06-10T02:51:52;9.90;;;8.67;;
1024;SDS011;501;48.214;11.350;2023-06-10T02:54:19;10.00;;;9.10;;
1024;SDS011;501;48.214;11.350;2023-06-10T02:56:45;10.30;;;9.40;;
1024;SDS011;501;48.214;11.350;2023-06-10T02:59:13;11.27;;;10.20;;
1024;SDS011;501;48.214;11.350;2023-06-10T03:01:38;9.17;;;8.20;;
1024;SDS011;501;48.214;11.350;2023-06-10T03:04:05;10.67;;;9.57;;
1024;SDS011;501;48.214;11.350;2023-06-10T03:06:31;10.20;;;9.10;;
1024;SDS011;501;48.214;11.350;2023-06-10T03:08:59;11.70;;;9.70;;
1024;SDS011;501;48.214;11.350;2023-06-10T03:11:25;9.53;;;8.63;;
1024;SDS011;501;48.214;11.350;2023-06-10T03:13:51;11.03;;;9.80;;
1024;SDS011;501;48.214;11.350;2023-06-10T03:16:18;10.40;;;9.30;;
1024;SDS011;501;48.214;11.350;2023-06-10T03:18:44;9.67;;;8.67;;
1024;SDS011;501;48.214;11.350;2023-06-10T03:21:10;11.70;;;9.70;;
1024;SDS011;501;48.214;11.350;2023-06-10T03:23:36;10.73;;;9.00;;
1024;SDS011;501;48.214;11.350;2023-06-10T03:26:02;10.90;;;9.80;;
1024;SDS011;501;48.214;11.350;2023-06-10T03:28:29;11.50;;;10.10;;
1024;SDS011;501;48.214;11.350;2023-06-10T03:30:55;11.60;;;10.40;;
1024;SDS011;501;48.214;11.350;2023-06-10T03:33:21;11.20;;;10.07;;
1024;SDS011;501;48.214;11.350;2023-06-10T03:35:47;12.63;;;10.30;;
1024;SDS011;501;48.214;11.350;2023-06-10T03:38:13;10.97;;;9.87;;
1024;SDS011;501;48.214;11.350;2023-06-10T03:40:39;11.63;;;10.40;;
1024;SDS011;501;48.214;11.350;2023-06-10T03:43:05;10.63;;;9.63;;
1024;SDS011;501;48.214;11.350;2023-06-10T03:45:30;10.73;;;9.63;;
1024;SDS011;501;48.214;11.350;2023-06-10T03:47:57;11.70;;;9.83;;
1024;SDS011;501;48.214;11.350;2023-06-10T03:50:23;11.87;;;9.80;;
1024;SDS011;501;48.214;11.350;2023-06-10T03:52:49;10.93;;;8.80;;
1024;SDS011;501;48.214;11.350;2023-06-10T03:55:15;10.77;;;9.70;;
1024;SDS011;501;48.214;11.350;2023-06-10T03:57:41;11.00;;;9.67;;
1024;SDS011;501;48.214;11.350;2023-06-10T04:00:07;11.23;;;9.50;;
1024;SDS011;501;48.214;11.350;2023-06-10T04:02:37;11.17;;;10.00;;
1024;SDS011;501;48.214;11.350;2023-06-10T04:05:13;10.20;;;9.20;;
1024;SDS011;501;48.214;11.350;2023-06-10T04:07:40;11.63;;;10.43;;
1024;SDS011;501;48.214;11.350;2023-06-10T04:10:07;13.00;;;9.67;;
1024;SDS011;501;48.214;11.350;2023-06-10T04:12:34;11.00;;;9.90;;
1024;SDS011;501;48.214;11.350;2023-06-10T04:15:00;11.90;;;10.40;;
1024;SDS011;501;48.214;11.350;2023-06-10T04:17:26;11.73;;;10.50;;
1024;SDS011;501;48.214;11.350;2023-06-10T04:19:51;10.63;;;9.53;;
1024;SDS011;501;48.214;11.350;2023-06-10T04:22:18;11.97;;;9.80;;
1024;SDS011;501;48.214;11.350;2023-06-10T04:24:44;12.30;;;10.33;;
1024;SDS011;501;48.214;11.350;2023-06-10T04:27:11;12.80;;;10.00;;
1024;SDS011;501;48.214;11.350;2023-06-10T04:29:36;10.43;;;8.87;;
1024;SDS011;501;48.214;11.350;2023-06-10T04:32:02;10.17;;;9.17;;
1024;SDS011;501;48.214;11.350;2023-06-10T04:34:30;11.70;;;10.37;;
1024;SDS011;501;48.214;11.350;2023-06-10T04:36:56;9.77;;;8.87;;
1024;SDS011;501;48.214;11.350;2023-06-10T04:39:21;11.50;;;10.30;;
1024;SDS011;501;48.214;11.350;2023-06-10T04:41:47;10.57;;;9.17;;
1024;SDS011;501;48.214;11.350;2023-06-10T04:44:13;10.63;;;8.83;;
1024;SDS011;501;48.214;11.350;2023-06-10T04:46:39;10.40;;;9.40;;
1024;SDS011;501;48.214;11.350;2023-06-10T04:49:04;10.80;;;9.63;;
1024;SDS011;501;48.214;11.350;2023-06-10T04:51:30;11.43;;;9.83;;
1024;SDS011;501;48.214;11.350;2023-06-10T04:53:57;9.70;;;8.70;;
1024;SDS011;501;48.214;11.350;2023-06-10T04:56:23;14.07;;;10.43;;
1024;SDS011;501;48.214;11.350;2023-06-10T04:58:49;11.30;;;9.40;;
1024;SDS011;501;48.214;11.350;2023-06-10T05:01:15;11.03;;;9.90;;
1024;SDS011;501;48.214;11.350;2023-06-10T05:03:40;10.80;;;9.70;;
1024;SDS011;501;48.214;11.350;2023-06-10T05:06:06;10.50;;;9.50;;
1024;SDS011;501;48.214;11.350;2023-06-10T05:08:32;10.30;;;9.30;;
1024;SDS011;501;48.214;11.350;2023-06-10T05:10:58;11.90;;;9.80;;
1024;SDS011;501;48.214;11.350;2023-06-10T05:13:24;12.53;;;10.00;;
1024;SDS011;501;48.214;11.350;2023-06-10T05:15:49;10.20;;;9.20;;
1024;SDS011;501;48.214;11.350;2023-06-10T05:18:15;10.20;;;9.10;;
1024;SDS011;501;48.214;11.350;2023-06-10T05:20:41;12.43;;;10.20;;
1024;SDS011;501;48.214;11.350;2023-06-10T05:23:06;10.90;;;9.60;;
1024;SDS011;501;48.214;11.350;2023-06-10T05:25:32;11.50;;;9.53;;
1024;SDS011;501;48.214;11.350;2023-06-10T05:28:01;11.40;;;9.43;;
1024;SDS011;501;48.214;11.350;2023-06-10T05:30:27;11.57;;;9.67;;
1024;SDS011;501;48.214;11.350;2023-06-10T05:32:53;10.33;;;9.20;;
1024;SDS011;501;48.214;11.350;2023-06-10T05:35:18;11.87;;;10.17;;
1024;SDS011;501;48.214;11.350;2023-06-10T05:37:44;10.67;;;9.07;;
1024;SDS011;501;48.214;11.350;2023-06-10T05:40:10;10.57;;;9.53;;
1024;SDS011;501;48.214;11.350;2023-06-10T05:42:36;10.83;;;9.50;;
1024;SDS011;501;48.214;11.350;2023-06-10T05:45:02;12.70;;;9.83;;
1024;SDS011;501;48.214;11.350;2023-06-10T05:47:28;10.63;;;9.40;;
1024;SDS011;501;48.214;11.350;2023-06-10T05:49:54;13.20;;;10.23;;
1024;SDS011;501;48.214;11.350;2023-06-10T05:52:20;13.87;;;11.27;;
1024;SDS011;501;48.214;11.350;2023-06-10T05:54:45;12.77;;;11.00;;
1024;SDS011;501;48.214;11.350;2023-06-10T05:57:11;11.80;;;10.60;;
1024;SDS011;501;48.214;11.350;2023-06-10T05:59:37;12.33;;;11.00;;
1024;SDS011;501;48.214;11.350;2023-06-10T06:02:03;11.90;;;10.63;;
1024;SDS011;501;48.214;11.350;2023-06-10T06:04:29;13.00;;;10.67;;
1024;SDS011;501;48.214;11.350;2023-06-10T06:06:54;13.93;;;10.30;;
1024;SDS011;501;48.214;11.350;2023-06-10T06:09:20;13.30;;;10.30;;
1024;SDS011;501;48.214;11.350;2023-06-10T06:11:45;13.83;;;11.07;;
1024;SDS011;501;48.214;11.350;2023-06-10T06:14:14;11.87;;;10.43;;
1024;SDS011;501;48.214;11.350;2023-06-10T06:16:39;12.20;;;10.53;;
1024;SDS011;501;48.214;11.350;2023-06-10T06:19:05;13.17;;;10.60;;
1024;SDS011;501;48.214;11.350;2023-06-10T06:21:31;10.50;;;9.50;;
1024;SDS011;501;48.214;11.350;2023-06-10T06:23:57;11.13;;;9.37;;
1024;SDS011;501;48.214;11.350;2023-06-10T06:26:23;9.57;;;8.57;;
1024;SDS011;501;48.214;11.350;2023-06-10T06:28:48;10.03;;;9.03;;
1024;SDS011;501;48.214;11.350;2023-06-10T06:31:14;11.10;;;9.77;;
1024;SDS011;501;48.214;11.350;2023-06-10T06:33:40;9.37;;;8.47;;
1024;SDS011;501;48.214;11.350;2023-06-10T06:36:05;10.43;;;9.33;;
1024;SDS011;501;48.214;11.350;2023-06-10T06:38:31;13.77;;;9.60;;
1024;SDS011;501;48.214;11.350;2023-06-10T06:40:56;9.80;;;8.80;;
1024;SDS011;501;48.214;11.350;2023-06-10T06:43:27;9.30;;;8.40;;
1024;SDS011;501;48.214;11.350;2023-06-10T06:45:54;8.97;;;7.70;;
1024;SDS011;501;48.214;11.350;2023-06-10T06:48:20;10.63;;;9.57;;
1024;SDS011;501;48.214;11.350;2023-06-10T06:50:45;9.70;;;8.70;;
1024;SDS011;501;48.214;11.350;2023-06-10T06:53:11;11.40;;;9.30;;
1024;SDS011;501;48.214;11.350;2023-06-10T06:55:37;11.07;;;9.00;;
1024;SDS011;501;48.214;11.350;2023-06-10T06:58:02;9.13;;;8.17;;
1024;SDS011;501;48.214;11.350;2023-06-10T07:00:29;12.47;;;9.37;;
1024;SDS011;501;48.214;11.350;2023-06-10T07:02:55;10.57;;;9.43;;
1024;SDS011;501;48.214;11.350;2023-06-10T07:05:22;10.20;;;9.07;;
1024;SDS011;501;48.214;11.350;2023-06-10T07:07:50;10.10;;;9.07;;
1024;SDS011;501;48.214;11.350;2023-06-10T07:10:19;9.27;;;8.33;;
1024;SDS011;501;48.214;11.350;2023-06-10T07:12:49;12.10;;;9.17;;
1024;SDS011;501;48.214;11.350;2023-06-10T07:15:15;9.73;;;8.83;;
1024;SDS011;501;48.214;11.350;2023-06-10T07:17:41;11.00;;;8.40;;
1024;SDS011;501;48.214;11.350;2023-06-10T07:20:07;10.63;;;8.53;;
1024;SDS011;501;48.214;11.350;2023-06-10T07:22:33;9.50;;;8.50;;
1024;SDS011;501;48.214;11.350;2023-06-10T07:24:58;10.03;;;8.87;;
1024;SDS011;501;48.214;11.350;2023-06-10T07:27:24;9.90;;;7.73;;
1024;SDS011;501;48.214;11.350;2023-06-10T07:29:50;9.57;;;8.67;;
1024;SDS011;501;48.214;11.350;2023-06-10T07:32:16;9.17;;;7.70;;
1024;SDS011;501;48.214;11.350;2023-06-10T07:34:42;9.40;;;8.50;;
1024;SDS011;501;48.214;11.350;2023-06-10T07:37:07;9.40;;;6.87;;
1024;SDS011;501;48.214;11.350;2023-06-10T07:39:33;7.40;;;6.70;;
1024;SDS011;501;48.214;11.350;2023-06-10T07:41:59;7.23;;;6.53;;
1024;SDS011;501;48.214;11.350;2023-06-10T07:44:25;12.57;;;7.70;;
1024;SDS011;501;48.214;11.350;2023-06-10T07:46:51;9.20;;;7.80;;
1024;SDS011;501;48.214;11.350;2023-06-10T07:49:16;13.97;;;7.13;;
1024;SDS011;501;48.214;11.350;2023-06-10T07:51:42;7.93;;;7.23;;
1024;SDS011;501;48.214;11.350;2023-06-10T07:54:07;7.80;;;6.70;;
1024;SDS011;501;48.214;11.350;2023-06-10T07:56:33;7.43;;;6.50;;
1024;SDS011;501;48.214;11.350;2023-06-10T07:58:59;7.07;;;6.47;;
1024;SDS011;501;48.214;11.350;2023-06-10T08:01:24;6.00;;;5.50;;
1024;SDS011;501;48.214;11.350;2023-06-10T08:03:50;6.80;;;6.03;;
1024;SDS011;501;48.214;11.350;2023-06-10T08:06:16;7.17;;;6.20;;
1024;SDS011;501;48.214;11.350;2023-06-10T08:08:42;7.70;;;7.00;;
1024;SDS011;501;48.214;11.350;2023-06-10T08:11:09;6.00;;;5.50;;
1024;SDS011;501;48.214;11.350;2023-06-10T08:13:35;7.90;;;6.27;;
1024;SDS011;501;48.214;11.350;2023-06-10T08:16:04;6.60;;;6.00;;
1024;SDS011;501;48.214;11.350;2023-06-10T08:18:30;7.80;;;6.93;;
1024;SDS011;501;48.214;11.350;2023-06-10T08:20:56;9.23;;;7.50;;
1024;SDS011;501;48.214;11.350;2023-06-10T08:23:22;8.57;;;7.67;;
1024;SDS011;501;48.214;11.350;2023-06-10T08:25:48;7.37;;;6.67;;
1024;SDS011;501;48.214;11.350;2023-06-10T08:28:14;7.63;;;6.60;;
1024;SDS011;501;48.214;11.350;2023-06-10T08:30:39;7.40;;;5.90;;
1024;SDS011;501;48.214;11.350;2023-06-10T08:33:05;6.90;;;6.20;;
1024;SDS011;501;48.214;11.350;2023-06-10T08:35:30;10.00;;;6.67;;
1024;SDS011;501;48.214;11.350;2023-06-10T08:37:56;7.50;;;6.67;;
1024;SDS011;501;48.214;11.350;2023-06-10T08:40:22;7.10;;;6.40;;
1024;SDS011;501;48.214;11.350;2023-06-10T08:45:16;6.23;;;5.63;;
1024;SDS011;501;48.214;11.350;2023-06-10T08:47:45;6.67;;;6.07;;
1024;SDS011;501;48.214;11.350;2023-06-10T08:50:15;6.50;;;5.90;;
1024;SDS011;501;48.214;11.350;2023-06-10T08:52:43;6.70;;;6.00;;
1024;SDS011;501;48.214;11.350;2023-06-10T08:55:14;6.37;;;5.80;;
1024;SDS011;501;48.214;11.350;2023-06-10T08:57:44;6.43;;;5.73;;
1024;SDS011;501;48.214;11.350;2023-06-10T09:00:10;7.47;;;6.77;;
1024;SDS011;501;48.214;11.350;2023-06-10T09:02:38;7.63;;;6.37;;
1024;SDS011;501;48.214;11.350;2023-06-10T09:05:04;6.80;;;6.20;;
1024;SDS011;501;48.214;11.350;2023-06-10T09:07:31;7.10;;;5.93;;
1024;SDS011;501;48.214;11.350;2023-06-10T09:09:57;7.83;;;6.07;;
1024;SDS011;501;48.214;11.350;2023-06-10T09:12:27;6.90;;;6.30;;
1024;SDS011;501;48.214;11.350;2023-06-10T09:14:53;7.37;;;6.30;;
1024;SDS011;501;48.214;11.350;2023-06-10T09:17:19;6.50;;;5.90;;
1024;SDS011;501;48.214;11.350;2023-06-10T09:19:44;7.87;;;6.37;;
1024;SDS011;501;48.214;11.350;2023-06-10T09:22:12;6.17;;;5.13;;
1024;SDS011;501;48.214;11.350;2023-06-10T09:24:38;6.83;;;6.23;;
1024;SDS011;501;48.214;11.350;2023-06-10T09:27:06;6.87;;;5.70;;
1024;SDS011;501;48.214;11.350;2023-06-10T09:29:46;6.87;;;5.70;;
1024;SDS011;501;48.214;11.350;2023-06-10T09:32:17;6.90;;;6.20;;
1024;SDS011;501;48.214;11.350;2023-06-10T09:34:43;6.30;;;5.70;;
1024;SDS011;501;48.214;11.350;2023-06-10T09:37:09;6.47;;;5.80;;
1024;SDS011;501;48.214;11.350;2023-06-10T09:39:37;5.87;;;5.37;;
1024;SDS011;501;48.214;11.350;2023-06-10T09:42:10;7.27;;;6.40;;
1024;SDS011;501;48.214;11.350;2023-06-10T09:44:42;6.10;;;5.60;;
1024;SDS011;501;48.214;11.350;2023-06-10T09:47:19;5.50;;;5.00;;
1024;SDS011;501;48.214;11.350;2023-06-10T09:49:45;6.03;;;5.53;;
1024;SDS011;501;48.214;11.350;2023-06-10T09:52:11;7.07;;;6.13;;
1024;SDS011;501;48.214;11.350;2023-06-10T09:54:36;5.40;;;4.80;;
1024;SDS011;501;48.214;11.350;2023-06-10T09:57:02;10.53;;;5.20;;
1024;SDS011;501;48.214;11.350;2023-06-10T09:59:35;8.20;;;5.67;;
1024;SDS011;501;48.214;11.350;2023-06-10T10:02:02;5.20;;;4.70;;
1024;SDS011;501;48.214;11.350;2023-06-10T10:04:29;4.87;;;4.47;;
1024;SDS011;501;48.214;11.350;2023-06-10T10:06:55;5.20;;;4.73;;
1024;SDS011;501;48.214;11.350;2023-06-10T10:09:21;5.43;;;4.70;;
1024;SDS011;501;48.214;11.350;2023-06-10T10:11:47;4.40;;;4.03;;
1024;SDS011;501;48.214;11.350;2023-06-10T10:14:14;6.40;;;4.53;;
1024;SDS011;501;48.214;11.350;2023-06-10T10:16:42;5.53;;;5.03;;
1024;SDS011;501;48.214;11.350;2023-06-10T10:19:16;5.03;;;4.63;;
1024;SDS011;501;48.214;11.350;2023-06-10T10:21:52;4.33;;;3.93;;
1024;SDS011;501;48.214;11.350;2023-06-10T10:24:23;3.70;;;3.47;;
1024;SDS011;501;48.214;11.350;2023-06-10T10:26:56;5.53;;;4.50;;
1024;SDS011;501;48.214;11.350;2023-06-10T10:29:24;5.23;;;4.47;;
1024;SDS011;501;48.214;11.350;2023-06-10T10:32:01;4.57;;;4.17;;
1024;SDS011;501;48.214;11.350;2023-06-10T10:34:31;4.90;;;4.40;;
1024;SDS011;501;48.214;11.350;2023-06-10T10:37:04;4.77;;;4.30;;
1024;SDS011;501;48.214;11.350;2023-06-10T10:39:30;4.93;;;4.40;;
1024;SDS011;501;48.214;11.350;2023-06-10T10:42:01;4.33;;;3.93;;
1024;SDS011;501;48.214;11.350;2023-06-10T10:44:28;7.10;;;5.20;;
1024;SDS011;501;48.214;11.350;2023-06-10T10:46:55;5.27;;;4.77;;
1024;SDS011;501;48.214;11.350;2023-06-10T10:49:22;3.70;;;3.40;;
1024;SDS011;501;48.214;11.350;2023-06-10T10:51:56;3.80;;;3.50;;
1024;SDS011;501;48.214;11.350;2023-06-10T10:54:30;4.37;;;3.97;;
1024;SDS011;501;48.214;11.350;2023-06-10T10:59:54;4.80;;;4.40;;
1024;SDS011;501;48.214;11.350;2023-06-10T11:02:32;3.67;;;3.37;;
1024;SDS011;501;48.214;11.350;2023-06-10T11:05:14;6.27;;;4.10;;
1024;SDS011;501;48.214;11.350;2023-06-10T11:07:40;4.47;;;4.07;;
1024;SDS011;501;48.214;11.350;2023-06-10T11:10:32;4.90;;;4.50;;
1024;SDS011;501;48.214;11.350;2023-06-10T11:13:05;5.00;;;4.37;;
1024;SDS011;501;48.214;11.350;2023-06-10T11:15:38;5.27;;;4.77;;
1024;SDS011;501;48.214;11.350;2023-06-10T11:31:43;4.87;;;4.50;;
1024;SDS011;501;48.214;11.350;2023-06-10T11:34:14;4.30;;;4.00;;
1024;SDS011;501;48.214;11.350;2023-06-10T11:36:45;5.13;;;4.63;;
1024;SDS011;501;48.214;11.350;2023-06-10T11:39:11;4.70;;;4.20;;
1024;SDS011;501;48.214;11.350;2023-06-10T11:41:37;4.60;;;4.10;;
1024;SDS011;501;48.214;11.350;2023-06-10T11:46:35;4.40;;;4.00;;
1024;SDS011;501;48.214;11.350;2023-06-10T11:49:01;6.20;;;4.80;;
1024;SDS011;501;48.214;11.350;2023-06-10T11:51:28;6.67;;;5.20;;
1024;SDS011;501;48.214;11.350;2023-06-10T11:53:57;4.47;;;4.07;;
1024;SDS011;501;48.214;11.350;2023-06-10T11:56:23;5.20;;;4.80;;
1024;SDS011;501;48.214;11.350;2023-06-10T11:58:54;4.40;;;4.00;;
1024;SDS011;501;48.214;11.350;2023-06-10T12:01:22;6.30;;;4.43;;
1024;SDS011;501;48.214;11.350;2023-06-10T12:06:28;4.90;;;4.30;;
1024;SDS011;501;48.214;11.350;2023-06-10T12:09:12;4.63;;;4.23;;
1024;SDS011;501;48.214;11.350;2023-06-10T12:11:51;4.50;;;4.10;;
1024;SDS011;501;48.214;11.350;2023-06-10T12:17:22;4.40;;;4.00;;
1024;SDS011;501;48.214;11.350;2023-06-10T12:20:02;3.93;;;3.63;;
1024;SDS011;501;48.214;11.350;2023-06-10T12:22:39;3.90;;;3.60;;
1024;SDS011;501;48.214;11.350;2023-06-10T12:25:06;4.43;;;4.03;;
1024;SDS011;501;48.214;11.350;2023-06-10T12:27:33;5.13;;;4.40;;
1024;SDS011;501;48.214;11.350;2023-06-10T12:30:00;4.80;;;4.40;;
1024;SDS011;501;48.214;11.350;2023-06-10T12:35:06;4.70;;;4.07;;
1024;SDS011;501;48.214;11.350;2023-06-10T12:37:32;4.70;;;4.27;;
1024;SDS011;501;48.214;11.350;2023-06-10T12:40:02;5.30;;;4.90;;
1024;SDS011;501;48.214;11.350;2023-06-10T12:42:32;4.47;;;4.07;;
1024;SDS011;501;48.214;11.350;2023-06-10T12:45:00;4.63;;;4.23;;
1024;SDS011;501;48.214;11.350;2023-06-10T12:47:38;4.80;;;4.10;;
1024;SDS011;501;48.214;11.350;2023-06-10T12:50:04;4.50;;;3.83;;
1024;SDS011;501;48.214;11.350;2023-06-10T12:52:31;5.13;;;4.00;;
1024;SDS011;501;48.214;11.350;2023-06-10T12:54:57;4.87;;;4.07;;
1024;SDS011;501;48.214;11.350;2023-06-10T12:57:23;3.80;;;3.50;;
1024;SDS011;501;48.214;11.350;2023-06-10T12:59:49;4.23;;;3.83;;
1024;SDS011;501;48.214;11.350;2023-06-10T13:02:17;4.07;;;3.70;;
1024;SDS011;501;48.214;11.350;2023-06-10T13:04:44;4.70;;;4.30;;
1024;SDS011;501;48.214;11.350;2023-06-10T13:07:10;4.27;;;3.87;;
1024;SDS011;501;48.214;11.350;2023-06-10T13:09:36;4.23;;;3.83;;
1024;SDS011;501;48.214;11.350;2023-06-10T13:12:02;3.83;;;3.53;;
1024;SDS011;501;48.214;11.350;2023-06-10T13:14:28;4.80;;;4.40;;
1024;SDS011;501;48.214;11.350;2023-06-10T13:16:54;3.97;;;3.60;;
1024;SDS011;501;48.214;11.350;2023-06-10T13:19:20;4.37;;;3.77;;
1024;SDS011;501;48.214;11.350;2023-06-10T13:21:48;3.43;;;3.13;;
1024;SDS011;501;48.214;11.350;2023-06-10T13:24:14;3.93;;;3.43;;
1024;SDS011;501;48.214;11.350;2023-06-10T13:26:40;4.30;;;4.00;;
1024;SDS011;501;48.214;11.350;2023-06-10T13:29:06;6.83;;;4.17;;
1024;SDS011;501;48.214;11.350;2023-06-10T13:31:33;4.00;;;3.70;;
1024;SDS011;501;48.214;11.350;2023-06-10T13:33:58;4.77;;;4.30;;
1024;SDS011;501;48.214;11.350;2023-06-10T13:36:24;3.97;;;3.50;;
1024;SDS011;501;48.214;11.350;2023-06-10T13:38:50;4.13;;;3.80;;
1024;SDS011;501;48.214;11.350;2023-06-10T13:41:16;5.10;;;4.70;;
1024;SDS011;501;48.214;11.350;2023-06-10T13:43:41;5.53;;;5.03;;
1024;SDS011;501;48.214;11.350;2023-06-10T13:46:07;4.67;;;4.27;;
1024;SDS011;501;48.214;11.350;2023-06-10T13:48:33;4.70;;;4.30;;
1024;SDS011;501;48.214;11.350;2023-06-10T13:50:59;5.20;;;4.67;;
1024;SDS011;501;48.214;11.350;2023-06-10T13:53:25;4.70;;;4.40;;
1024;SDS011;501;48.214;11.350;2023-06-10T13:55:50;4.80;;;4.40;;
1024;SDS011;501;48.214;11.350;2023-06-10T13:58:16;4.03;;;3.73;;
1024;SDS011;501;48.214;11.350;2023-06-10T14:00:42;4.47;;;4.10;;
1024;SDS011;501;48.214;11.350;2023-06-10T14:03:07;5.77;;;3.67;;
1024;SDS011;501;48.214;11.350;2023-06-10T14:05:33;4.67;;;4.37;;
1024;SDS011;501;48.214;11.350;2023-06-10T14:07:59;4.73;;;4.33;;
1024;SDS011;501;48.214;11.350;2023-06-10T14:10:25;4.53;;;4.13;;
1024;SDS011;501;48.214;11.350;2023-06-10T14:12:51;3.90;;;3.60;;
1024;SDS011;501;48.214;11.350;2023-06-10T14:15:16;4.13;;;3.77;;
1024;SDS011;501;48.214;11.350;2023-06-10T14:17:42;3.70;;;3.40;;
1024;SDS011;501;48.214;11.350;2023-06-10T14:20:08;4.07;;;3.77;;
1024;SDS011;501;48.214;11.350;2023-06-10T14:22:34;5.67;;;4.80;;
1024;SDS011;501;48.214;11.350;2023-06-10T14:24:59;4.30;;;3.90;;
1024;SDS011;501;48.214;11.350;2023-06-10T14:27:25;4.20;;;3.90;;
1024;SDS011;501;48.214;11.350;2023-06-10T14:29:51;4.33;;;4.03;;
1024;SDS011;501;48.214;11.350;2023-06-10T14:32:16;4.10;;;3.80;;
1024;SDS011;501;48.214;11.350;2023-06-10T14:34:42;3.60;;;3.30;;
1024;SDS011;501;48.214;11.350;2023-06-10T14:37:09;3.97;;;3.63;;
1024;SDS011;501;48.214;11.350;2023-06-10T14:39:35;3.70;;;3.40;;
1024;SDS011;501;48.214;11.350;2023-06-10T14:42:01;4.00;;;3.70;;
1024;SDS011;501;48.214;11.350;2023-06-10T14:44:27;4.77;;;4.37;;
1024;SDS011;501;48.214;11.350;2023-06-10T14:46:53;5.50;;;3.80;;
1024;SDS011;501;48.214;11.350;2023-06-10T14:49:18;6.30;;;3.83;;
1024;SDS011;501;48.214;11.350;2023-06-10T14:51:44;4.77;;;4.17;;
1024;SDS011;501;48.214;11.350;2023-06-10T14:54:10;5.50;;;3.93;;
1024;SDS011;501;48.214;11.350;2023-06-10T14:56:36;3.57;;;3.27;;
1024;SDS011;501;48.214;11.350;2023-06-10T14:59:01;4.30;;;3.90;;
1024;SDS011;501;48.214;11.350;2023-06-10T15:01:27;5.50;;;4.40;;
1024;SDS011;501;48.214;11.350;2023-06-10T15:03:53;3.57;;;3.27;;
1024;SDS011;501;48.214;11.350;2023-06-10T15:06:18;4.23;;;3.83;;
1024;SDS011;501;48.214;11.350;2023-06-10T15:08:47;4.00;;;3.60;;
1024;SDS011;501;48.214;11.350;2023-06-10T15:11:15;3.37;;;3.17;;
1024;SDS011;501;48.214;11.350;2023-06-10T15:13:41;3.50;;;3.00;;
1024;SDS011;501;48.214;11.350;2023-06-10T15:16:07;3.33;;;3.13;;
1024;SDS011;501;48.214;11.350;2023-06-10T15:18:33;2.60;;;2.40;;
1024;SDS011;501;48.214;11.350;2023-06-10T15:20:58;3.13;;;2.90;;
1024;SDS011;501;48.214;11.350;2023-06-10T15:23:24;3.30;;;3.00;;
1024;SDS011;501;48.214;11.350;2023-06-10T15:25:50;4.93;;;2.93;;
1024;SDS011;501;48.214;11.350;2023-06-10T15:28:15;6.40;;;2.57;;
1024;SDS011;501;48.214;11.350;2023-06-10T15:30:41;5.17;;;2.80;;
1024;SDS011;501;48.214;11.350;2023-06-10T15:33:07;2.90;;;2.70;;
1024;SDS011;501;48.214;11.350;2023-06-10T15:35:32;2.90;;;2.70;;
1024;SDS011;501;48.214;11.350;2023-06-10T15:37:58;2.90;;;2.70;;
1024;SDS011;501;48.214;11.350;2023-06-10T15:40:24;3.53;;;3.33;;
1024;SDS011;501;48.214;11.350;2023-06-10T15:42:50;5.13;;;3.60;;
1024;SDS011;501;48.214;11.350;2023-06-10T15:45:16;3.30;;;3.10;;